Time;durP1;ratioP1;P1;durP2;ratioP2;P2;SDS_P1;SDS_P2;PMS_P1;PMS_P2;Temp;Humidity;BMP_temperature;BMP_pressure;BME280_temperature;BME280_humidity;BME280_pressure;Samples;Min_cycle;Max_cycle;Signal;HPM_P1;HPM_P2
2022/06/02 00:01:17;;;;;;;1.40;1.30;;;14.90;74.20;;;;;;4921209;29;20988;-84
2022/06/02 00:03:57;;;;;;;1.70;1.60;;;14.80;74.80;;;;;;4925681;29;20470;-83
2022/06/02 00:06:37;;;;;;;1.77;1.67;;;14.80;75.00;;;;;;4925285;29;20466;-83
2022/06/02 00:09:14;;;;;;;1.40;1.30;;;14.70;75.30;;;;;;4924466;29;20464;-83
2022/06/02 00:12:03;;;;;;;2.40;1.30;;;14.80;75.30;;;;;;4924793;29;20458;-83
2022/06/02 00:14:37;;;;;;;1.00;1.00;;;14.70;75.50;;;;;;4925115;29;20467;-83
2022/06/02 00:17:11;;;;;;;1.77;1.40;;;14.70;75.10;;;;;;4925462;29;20850;-83
2022/06/02 00:19:44;;;;;;;1.47;1.17;;;14.70;75.60;;;;;;4924322;29;20443;-83
2022/06/02 00:22:17;;;;;;;1.70;1.60;;;14.80;76.00;;;;;;4924138;29;20497;-83
2022/06/02 00:24:51;;;;;;;1.90;1.20;;;14.80;75.90;;;;;;4924790;29;20888;-83
2022/06/02 00:27:28;;;;;;;2.50;1.67;;;14.80;75.60;;;;;;4924534;29;20510;-83
2022/06/02 00:30:04;;;;;;;1.07;1.07;;;14.60;75.70;;;;;;4924356;29;20458;-83
2022/06/02 00:32:39;;;;;;;1.13;1.10;;;14.60;76.20;;;;;;4925101;29;20473;-83
2022/06/02 00:35:19;;;;;;;2.10;1.17;;;14.60;76.20;;;;;;4924150;29;20458;-82
2022/06/02 00:37:50;;;;;;;2.10;1.70;;;14.60;76.40;;;;;;4924548;29;20466;-84
2022/06/02 00:40:18;;;;;;;1.50;1.40;;;14.60;76.70;;;;;;4923851;29;20486;-83
2022/06/02 00:42:58;;;;;;;3.67;1.50;;;14.60;76.90;;;;;;4924484;29;20809;-83
2022/06/02 00:45:26;;;;;;;1.70;1.60;;;14.60;77.00;;;;;;4924763;29;20462;-83
2022/06/02 00:48:12;;;;;;;2.00;1.30;;;14.60;77.30;;;;;;4924411;29;20826;-83
2022/06/02 00:50:49;;;;;;;1.43;1.40;;;14.50;77.10;;;;;;4924623;29;20474;-83
2022/06/02 00:53:26;;;;;;;1.70;1.60;;;14.50;77.70;;;;;;4924362;29;20473;-83
2022/06/02 00:58:58;;;;;;;2.03;1.90;;;14.60;77.90;;;;;;4924241;29;20507;-83
2022/06/02 01:01:28;;;;;;;1.47;1.37;;;14.50;77.70;;;;;;4923699;29;20502;-83
2022/06/02 01:03:57;;;;;;;3.43;1.30;;;14.50;78.00;;;;;;4923947;29;20976;-84
2022/06/02 01:06:41;;;;;;;1.57;1.40;;;14.50;78.20;;;;;;4924119;29;20454;-83
2022/06/02 01:09:34;;;;;;;1.80;1.33;;;14.50;78.20;;;;;;4924088;29;20468;-83
2022/06/02 01:12:14;;;;;;;2.93;1.40;;;14.50;77.90;;;;;;4923817;29;20485;-83
2022/06/02 01:14:55;;;;;;;1.43;1.33;;;14.50;78.10;;;;;;4924269;29;20465;-83
2022/06/02 01:17:33;;;;;;;1.80;1.70;;;14.40;78.20;;;;;;4924585;29;20469;-83
2022/06/02 01:20:12;;;;;;;3.40;1.50;;;14.40;78.10;;;;;;4923498;29;20470;-83
2022/06/02 01:23:02;;;;;;;2.00;1.60;;;14.40;78.50;;;;;;4924100;29;20494;-83
2022/06/02 01:26:00;;;;;;;1.33;1.17;;;14.40;78.60;;;;;;4923758;29;20468;-83
2022/06/02 01:28:41;;;;;;;2.10;1.90;;;14.30;78.80;;;;;;4924606;29;20459;-83
2022/06/02 01:31:19;;;;;;;1.53;1.43;;;14.30;79.20;;;;;;4921229;29;20475;-83
2022/06/02 01:33:57;;;;;;;4.60;2.27;;;14.30;79.50;;;;;;4923764;29;20458;-83
2022/06/02 01:36:33;;;;;;;2.60;1.40;;;14.20;79.50;;;;;;4926642;29;20459;-82
2022/06/02 01:39:15;;;;;;;1.80;1.70;;;14.30;79.80;;;;;;4934272;29;20458;-82
2022/06/02 01:41:52;;;;;;;2.97;1.40;;;14.30;79.70;;;;;;4933803;29;20486;-82
2022/06/02 01:44:26;;;;;;;1.50;1.40;;;14.30;79.70;;;;;;4934342;29;20493;-82
2022/06/02 01:46:59;;;;;;;2.70;1.30;;;14.20;80.00;;;;;;4933567;29;20459;-82
2022/06/02 01:49:41;;;;;;;1.53;1.43;;;14.20;80.20;;;;;;4934037;29;20463;-82
2022/06/02 01:52:26;;;;;;;1.60;1.50;;;14.20;80.00;;;;;;4933746;29;20454;-82
2022/06/02 01:55:03;;;;;;;1.50;1.37;;;14.10;80.20;;;;;;4933410;29;20458;-83
2022/06/02 01:57:45;;;;;;;1.80;1.70;;;14.10;80.60;;;;;;4923568;29;20463;-83
2022/06/02 02:00:15;;;;;;;1.40;1.30;;;14.10;80.80;;;;;;4924235;29;21014;-83
2022/06/02 02:02:59;;;;;;;1.63;1.53;;;14.00;81.20;;;;;;4924055;29;20486;-83
2022/06/02 02:05:35;;;;;;;1.67;1.57;;;13.90;81.60;;;;;;4923583;29;20466;-83
2022/06/02 02:08:22;;;;;;;3.17;1.70;;;13.90;82.10;;;;;;4923179;29;20462;-83
2022/06/02 02:11:01;;;;;;;1.80;1.70;;;13.90;82.30;;;;;;4922932;29;20502;-83
2022/06/02 02:13:39;;;;;;;1.03;1.03;;;13.90;82.50;;;;;;4923462;29;20977;-83
2022/06/02 02:16:19;;;;;;;1.67;1.53;;;13.80;83.10;;;;;;4923137;29;20463;-83
2022/06/02 02:18:58;;;;;;;1.70;1.60;;;13.80;83.50;;;;;;4922757;29;20467;-83
2022/06/02 02:21:34;;;;;;;9.40;3.17;;;13.70;83.50;;;;;;4922507;29;21008;-83
2022/06/02 02:24:14;;;;;;;1.87;1.77;;;13.60;84.00;;;;;;4932566;29;20462;-82
2022/06/02 02:26:46;;;;;;;1.57;1.47;;;13.60;84.30;;;;;;4934357;29;20490;-82
2022/06/02 02:29:23;;;;;;;1.27;1.23;;;13.60;84.70;;;;;;4933645;29;20459;-82
2022/06/02 02:31:59;;;;;;;3.00;2.07;;;13.60;85.10;;;;;;4933538;29;20478;-82
2022/06/02 02:34:38;;;;;;;3.50;2.50;;;13.60;85.50;;;;;;4934336;29;20462;-82
2022/06/02 02:37:11;;;;;;;1.80;1.47;;;13.60;85.50;;;;;;4936988;29;20454;-82
2022/06/02 02:39:47;;;;;;;1.70;1.60;;;13.60;85.90;;;;;;4937122;29;20460;-82
2022/06/02 02:42:24;;;;;;;2.23;1.80;;;13.80;86.10;;;;;;4936696;29;20475;-82
2022/06/02 02:45:08;;;;;;;1.57;1.47;;;13.70;86.00;;;;;;4937296;29;20650;-82
2022/06/02 02:47:42;;;;;;;3.23;2.93;;;13.70;86.40;;;;;;4936920;29;20454;-82
2022/06/02 02:50:18;;;;;;;1.77;1.67;;;13.60;86.80;;;;;;4937195;29;20477;-82
2022/06/02 02:52:53;;;;;;;1.83;1.73;;;13.70;87.10;;;;;;4936541;29;20450;-82
2022/06/02 02:55:24;;;;;;;1.57;1.47;;;13.70;87.00;;;;;;4936493;29;20454;-82
2022/06/02 02:57:57;;;;;;;4.33;1.90;;;13.70;87.40;;;;;;4934150;29;20458;-84
2022/06/02 03:00:30;;;;;;;2.27;2.07;;;13.80;87.40;;;;;;4925916;29;20834;-83
2022/06/02 03:03:06;;;;;;;1.33;1.33;;;13.80;87.70;;;;;;4925955;29;20904;-83
2022/06/02 03:05:53;;;;;;;1.63;1.53;;;13.90;87.50;;;;;;4926711;29;20446;-83
2022/06/02 03:08:32;;;;;;;1.63;1.53;;;13.80;86.70;;;;;;4909119;29;20886;-82
2022/06/02 03:11:08;;;;;;;2.27;2.07;;;13.70;86.70;;;;;;4925997;29;21013;-83
2022/06/02 03:13:45;;;;;;;6.17;2.50;;;13.70;87.10;;;;;;4926737;29;20461;-82
2022/06/02 03:16:15;;;;;;;1.70;1.60;;;13.70;86.60;;;;;;4927097;29;20474;-82
2022/06/02 03:19:11;;;;;;;1.80;1.70;;;13.60;86.60;;;;;;4927035;29;20458;-82
2022/06/02 03:21:50;;;;;;;2.80;2.10;;;13.60;86.70;;;;;;4933906;29;20499;-82
2022/06/02 03:24:46;;;;;;;2.30;2.07;;;13.50;86.50;;;;;;4926525;29;20473;-82
2022/06/02 03:27:24;;;;;;;1.90;1.80;;;13.40;86.50;;;;;;4923625;29;20567;-82
2022/06/02 03:30:08;;;;;;;2.10;2.00;;;13.40;86.50;;;;;;4934955;29;20465;-82
2022/06/02 03:32:52;;;;;;;2.40;2.30;;;13.50;86.60;;;;;;4930177;29;20478;-82
2022/06/02 03:35:27;;;;;;;2.63;2.43;;;13.40;86.30;;;;;;4930884;29;20458;-82
2022/06/02 03:38:06;;;;;;;2.60;2.40;;;13.50;86.20;;;;;;4935640;29;20462;-82
2022/06/02 03:41:02;;;;;;;2.83;2.40;;;13.50;86.40;;;;;;4935126;29;20501;-82
2022/06/02 03:43:38;;;;;;;2.73;2.57;;;13.40;86.60;;;;;;4931480;29;20976;-83
2022/06/02 03:46:16;;;;;;;3.17;2.87;;;13.50;86.50;;;;;;4929762;29;20454;-82
2022/06/02 03:49:00;;;;;;;2.07;1.87;;;13.50;86.60;;;;;;4926729;29;20461;-83
2022/06/02 03:51:40;;;;;;;2.63;2.47;;;13.60;86.20;;;;;;4925848;29;20471;-83
2022/06/02 03:54:33;;;;;;;3.03;2.83;;;13.50;86.10;;;;;;4925978;29;20450;-82
2022/06/02 03:57:29;;;;;;;2.50;2.40;;;13.50;86.20;;;;;;4913579;29;20465;-83
2022/06/02 04:00:12;;;;;;;2.70;2.50;;;13.50;86.60;;;;;;4925686;29;20972;-82
2022/06/02 04:02:45;;;;;;;2.30;2.20;;;13.60;86.20;;;;;;4925307;29;20486;-83
2022/06/02 04:05:47;;;;;;;2.17;2.07;;;13.70;86.70;;;;;;4924354;29;20467;-83
2022/06/02 04:08:45;;;;;;;2.67;2.47;;;13.70;87.00;;;;;;4906246;29;20941;-83
2022/06/02 04:52:43;;;;;;;;;;;;;;;;;;;;;
2022/06/02 06:18:43;;;;;;;2.33;2.13;;;15.90;82.30;;;;;;4661853;29;20477;-81
2022/06/02 06:21:22;;;;;;;3.43;3.23;;;16.10;82.10;;;;;;4875212;29;20474;-80
2022/06/02 06:24:20;;;;;;;2.10;2.00;;;16.10;80.80;;;;;;4925525;29;20460;-81
2022/06/02 06:26:54;;;;;;;2.33;2.20;;;16.00;80.30;;;;;;4925722;29;20491;-81
2022/06/02 06:29:52;;;;;;;6.23;3.10;;;15.90;80.90;;;;;;4943298;29;20460;-81
2022/06/02 06:32:22;;;;;;;3.07;2.83;;;16.00;82.10;;;;;;4934326;29;20559;-81
2022/06/02 06:35:03;;;;;;;2.50;2.20;;;16.20;82.30;;;;;;4924233;29;20492;-81
2022/06/02 06:37:57;;;;;;;3.10;2.90;;;16.20;80.60;;;;;;4928704;29;20550;-81
2022/06/02 06:40:46;;;;;;;2.80;2.57;;;16.30;81.50;;;;;;4928386;29;20479;-81
2022/06/02 06:43:29;;;;;;;2.83;2.47;;;16.20;80.80;;;;;;4930876;29;20488;-81
2022/06/02 06:46:01;;;;;;;3.10;2.80;;;16.20;80.60;;;;;;4929096;29;20463;-81
2022/06/02 06:48:35;;;;;;;2.53;2.33;;;16.20;80.60;;;;;;4933392;29;20973;-81
2022/06/02 06:51:15;;;;;;;2.93;2.73;;;16.20;80.70;;;;;;4930753;29;20477;-81
2022/06/02 06:53:54;;;;;;;3.63;2.63;;;16.10;81.30;;;;;;4928233;29;20466;-81
2022/06/02 06:56:27;;;;;;;3.70;2.93;;;16.10;81.40;;;;;;4930627;29;20466;-81
2022/06/02 06:59:08;;;;;;;3.10;2.87;;;16.30;81.50;;;;;;4930848;29;20474;-81
2022/06/02 07:01:43;;;;;;;2.90;2.67;;;16.20;80.10;;;;;;4926225;29;20499;-81
2022/06/02 07:04:21;;;;;;;3.27;3.00;;;16.40;81.30;;;;;;4928190;29;20451;-82
2022/06/02 07:06:57;;;;;;;3.03;2.57;;;16.40;80.30;;;;;;4931492;29;20545;-81
2022/06/02 07:09:33;;;;;;;2.67;2.47;;;16.20;79.50;;;;;;4930649;29;20452;-81
2022/06/02 07:14:54;;;;;;;4.00;2.20;;;16.40;81.20;;;;;;4929434;29;20827;-81
2022/06/02 07:17:33;;;;;;;3.93;2.50;;;16.60;81.20;;;;;;4930105;29;20525;-81
2022/06/02 07:20:06;;;;;;;2.50;2.40;;;16.60;80.50;;;;;;4929869;29;20457;-81
2022/06/02 07:22:43;;;;;;;2.73;2.50;;;16.50;80.20;;;;;;4933970;29;20452;-81
2022/06/02 07:25:19;;;;;;;3.13;2.33;;;16.30;80.50;;;;;;4935556;29;20466;-80
2022/06/02 07:27:52;;;;;;;5.90;3.20;;;16.30;82.10;;;;;;4930396;29;20467;-80
2022/06/02 07:30:33;;;;;;;3.03;2.80;;;16.60;83.70;;;;;;4938419;29;20479;-80
2022/06/02 07:33:29;;;;;;;2.70;2.50;;;16.70;84.10;;;;;;4924088;29;20487;-79
2022/06/02 07:36:13;;;;;;;3.63;2.83;;;16.80;82.80;;;;;;4923197;29;20460;-81
2022/06/02 07:39:00;;;;;;;3.73;3.40;;;16.80;81.10;;;;;;4931774;29;20458;-81
2022/06/02 07:41:47;;;;;;;5.53;2.60;;;16.50;80.00;;;;;;4923041;29;20476;-81
2022/06/02 07:44:45;;;;;;;5.17;4.00;;;16.40;80.70;;;;;;4923026;29;20469;-80
2022/06/02 07:47:41;;;;;;;2.70;2.50;;;16.30;82.90;;;;;;4906353;29;20478;-80
2022/06/02 07:50:16;;;;;;;2.80;2.50;;;16.70;83.30;;;;;;4939154;29;20472;-81
2022/06/02 07:52:53;;;;;;;2.63;2.43;;;16.80;83.60;;;;;;4924827;29;20479;-81
2022/06/02 07:55:32;;;;;;;3.30;3.00;;;16.90;85.50;;;;;;4921956;29;20464;-80
2022/06/02 07:58:20;;;;;;;3.17;2.87;;;17.10;82.80;;;;;;4925237;29;20453;-80
2022/06/02 08:00:54;;;;;;;4.33;2.20;;;17.20;84.60;;;;;;4923158;29;20481;-79
2022/06/02 08:03:34;;;;;;;1.97;1.87;;;17.10;80.60;;;;;;4931904;29;20459;-81
2022/06/02 08:06:08;;;;;;;2.20;2.10;;;17.00;80.60;;;;;;4926607;29;20466;-81
2022/06/02 08:08:41;;;;;;;2.73;2.57;;;17.10;80.60;;;;;;4934343;29;20558;-81
2022/06/02 08:11:21;;;;;;;5.67;2.33;;;17.30;79.80;;;;;;4930138;29;20608;-80
2022/06/02 08:13:58;;;;;;;3.00;2.00;;;17.40;79.80;;;;;;4938956;29;20523;-80
2022/06/02 08:16:30;;;;;;;3.30;2.80;;;17.30;79.50;;;;;;4938040;29;20464;-81
2022/06/02 08:19:11;;;;;;;3.70;2.90;;;17.50;81.00;;;;;;4933133;29;20459;-79
2022/06/02 08:21:44;;;;;;;2.43;2.30;;;17.60;81.60;;;;;;4937644;29;20497;-79
2022/06/02 08:24:35;;;;;;;2.20;2.00;;;17.60;78.10;;;;;;4922275;29;20450;-80
2022/06/02 08:27:25;;;;;;;2.27;2.17;;;17.70;78.40;;;;;;4917731;29;20465;-79
2022/06/02 08:30:09;;;;;;;3.87;2.50;;;17.90;78.70;;;;;;4914481;29;20461;-79
2022/06/02 08:33:06;;;;;;;3.23;3.00;;;18.00;79.40;;;;;;4923669;29;20497;-77
2022/06/02 08:35:41;;;;;;;2.03;2.03;;;18.20;77.10;;;;;;4922690;29;20457;-79
2022/06/02 08:38:20;;;;;;;1.73;1.63;;;18.20;78.10;;;;;;4927967;29;20452;-78
2022/06/02 08:41:31;;;;;;;2.40;2.30;;;18.30;77.40;;;;;;4941023;29;20492;-78
2022/06/02 08:44:39;;;;;;;2.50;2.20;;;18.20;75.20;;;;;;4927014;29;20553;-79
2022/06/02 08:47:43;;;;;;;2.10;2.00;;;18.30;75.10;;;;;;4902041;29;20460;-79
2022/06/02 08:50:33;;;;;;;2.30;2.20;;;18.40;77.40;;;;;;4946154;29;20472;-77
2022/06/02 08:53:39;;;;;;;5.00;2.80;;;18.70;76.60;;;;;;4936709;29;20484;-79
2022/06/02 08:56:20;;;;;;;1.80;1.70;;;19.00;76.50;;;;;;4937188;29;20460;-80
2022/06/02 08:59:19;;;;;;;3.63;2.57;;;19.10;74.90;;;;;;4926241;29;20455;-80
2022/06/02 09:02:04;;;;;;;2.27;2.17;;;18.90;74.90;;;;;;4930952;29;20489;-80
2022/06/02 09:05:07;;;;;;;2.27;2.07;;;19.00;73.90;;;;;;4932561;29;20931;-80
2022/06/02 09:08:06;;;;;;;1.87;1.73;;;18.70;72.50;;;;;;4926977;29;20464;-78
2022/06/02 09:10:52;;;;;;;1.90;1.80;;;18.90;75.40;;;;;;4928174;29;20484;-81
2022/06/02 09:13:54;;;;;;;3.37;2.30;;;19.10;77.80;;;;;;4917850;29;20844;-80
2022/06/02 09:16:49;;;;;;;1.97;1.87;;;19.30;75.20;;;;;;4923947;29;20824;-80
2022/06/02 09:19:34;;;;;;;2.27;1.93;;;19.60;73.30;;;;;;4914958;29;20546;-80
2022/06/02 09:22:33;;;;;;;2.20;2.10;;;19.70;72.40;;;;;;4914832;29;20477;-79
2022/06/02 09:25:14;;;;;;;2.37;2.17;;;19.60;70.80;;;;;;4920479;29;20900;-80
2022/06/02 09:27:57;;;;;;;1.90;1.77;;;19.60;74.80;;;;;;4919694;29;20478;-79
2022/06/02 09:30:37;;;;;;;1.87;1.70;;;19.80;73.90;;;;;;4913907;29;20471;-81
2022/06/02 09:33:37;;;;;;;3.27;2.83;;;20.00;73.20;;;;;;4919104;29;20490;-80
2022/06/02 09:36:26;;;;;;;2.27;2.10;;;20.20;69.40;;;;;;4917453;29;20470;-80
2022/06/02 09:39:13;;;;;;;2.10;1.85;;;20.00;69.20;;;;;;4920362;29;20933;-81
2022/06/02 09:41:56;;;;;;;3.60;2.55;;;20.20;70.00;;;;;;4894593;29;1053430;-78
2022/06/02 09:44:29;;;;;;;2.17;2.07;;;20.40;70.80;;;;;;4926926;29;20206;-80
2022/06/02 09:47:20;;;;;;;3.90;2.67;;;20.60;73.60;;;;;;4915185;29;20455;-80
2022/06/02 09:50:12;;;;;;;3.03;2.03;;;20.80;72.00;;;;;;4918919;29;20965;-81
2022/06/02 09:53:07;;;;;;;4.90;2.90;;;21.00;71.10;;;;;;4930259;29;20461;-78
2022/06/02 09:55:55;;;;;;;6.73;2.20;;;21.30;70.00;;;;;;4930377;29;20946;-81
2022/06/02 10:01:45;;;;;;;2.03;1.93;;;21.20;67.40;;;;;;4887656;29;20480;-79
2022/06/02 10:04:35;;;;;;;2.60;2.30;;;21.40;70.50;;;;;;4927955;29;20456;-79
2022/06/02 10:07:33;;;;;;;2.27;2.07;;;21.60;70.10;;;;;;4915800;29;20804;-80
2022/06/02 10:10:33;;;;;;;2.13;1.73;;;21.90;69.80;;;;;;4931766;29;20496;-80
2022/06/02 10:13:42;;;;;;;2.60;2.13;;;22.20;64.30;;;;;;4933681;29;20501;-79
2022/06/02 10:16:50;;;;;;;2.17;1.97;;;22.30;65.10;;;;;;4928511;29;20939;-78
2022/06/02 10:19:51;;;;;;;2.40;2.20;;;22.40;64.30;;;;;;4932591;29;20461;-78
2022/06/02 10:22:23;;;;;;;2.20;2.10;;;22.30;64.40;;;;;;4922092;29;20477;-79
2022/06/02 10:25:20;;;;;;;4.87;2.17;;;22.60;63.50;;;;;;4915203;29;20473;-78
2022/06/02 10:28:35;;;;;;;2.30;2.10;;;22.80;64.80;;;;;;4934006;29;20457;-78
2022/06/02 10:31:46;;;;;;;3.37;2.50;;;22.90;65.80;;;;;;4926385;29;20481;-80
2022/06/02 10:34:47;;;;;;;2.67;2.20;;;22.50;61.00;;;;;;4925197;29;20493;-80
2022/06/02 10:37:46;;;;;;;2.93;2.30;;;22.60;62.30;;;;;;4917120;29;20479;-79
2022/06/02 10:40:38;;;;;;;2.30;2.10;;;22.90;69.30;;;;;;4926529;29;20462;-80
2022/06/02 10:43:41;;;;;;;2.17;2.07;;;23.30;69.10;;;;;;4934879;29;20457;-79
2022/06/02 10:46:32;;;;;;;2.70;2.30;;;23.60;63.30;;;;;;4904646;29;20453;-79
2022/06/02 10:49:08;;;;;;;2.37;2.17;;;23.90;59.10;;;;;;4920747;29;20459;-78
2022/06/02 10:52:30;;;;;;;2.50;2.40;;;24.10;58.60;;;;;;4927419;29;20520;-79
2022/06/02 10:55:36;;;;;;;2.23;2.10;;;24.00;58.30;;;;;;4921764;29;20589;-79
2022/06/02 10:58:39;;;;;;;2.30;1.93;;;23.80;58.30;;;;;;4920434;29;20477;-79
2022/06/02 11:01:34;;;;;;;2.40;2.20;;;23.90;59.90;;;;;;4923384;29;20476;-79
2022/06/02 11:04:30;;;;;;;3.13;2.20;;;24.10;59.40;;;;;;4919165;29;20454;-79
2022/06/02 11:07:30;;;;;;;2.50;2.30;;;24.30;58.20;;;;;;4935013;29;20452;-80
2022/06/02 11:10:20;;;;;;;2.33;1.87;;;24.80;59.80;;;;;;4920487;29;20838;-79
2022/06/02 11:13:10;;;;;;;2.13;2.03;;;25.40;59.00;;;;;;4933264;29;20981;-80
2022/06/02 11:16:03;;;;;;;3.43;1.77;;;26.10;57.80;;;;;;4924104;29;20468;-80
2022/06/02 11:18:54;;;;;;;1.87;1.77;;;26.80;55.00;;;;;;4934993;29;20464;-80
2022/06/02 11:21:42;;;;;;;1.97;1.87;;;27.50;55.80;;;;;;4932900;29;20478;-80
2022/06/02 11:24:55;;;;;;;3.23;3.03;;;28.10;53.60;;;;;;4919498;29;20455;-80
2022/06/02 11:27:55;;;;;;;2.67;2.47;;;28.70;52.20;;;;;;4921250;29;20462;-80
2022/06/02 11:31:07;;;;;;;2.03;1.70;;;29.00;49.60;;;;;;4920635;29;20483;-79
2022/06/02 11:34:17;;;;;;;2.10;2.00;;;29.30;51.50;;;;;;4920269;29;20514;-80
2022/06/02 11:37:44;;;;;;;2.50;2.30;;;29.50;50.50;;;;;;4849118;29;20512;-80
2022/06/02 11:40:35;;;;;;;2.53;2.33;;;29.30;47.90;;;;;;4802433;29;20453;-80
2022/06/02 11:43:13;;;;;;;2.10;2.00;;;28.90;47.90;;;;;;4937971;29;20469;-80
2022/06/02 11:46:09;;;;;;;2.63;2.43;;;28.50;48.10;;;;;;4933976;29;20457;-82
2022/06/02 11:49:27;;;;;;;2.80;2.60;;;27.90;48.60;;;;;;4917684;29;20955;-81
2022/06/02 11:52:15;;;;;;;2.33;2.13;;;27.80;50.20;;;;;;4924300;29;20843;-82
2022/06/02 11:55:12;;;;;;;1.57;1.50;;;28.20;51.50;;;;;;4926732;29;20500;-78
2022/06/02 11:57:51;;;;;;;2.27;2.07;;;28.70;49.60;;;;;;4919274;29;20478;-78
2022/06/02 12:01:06;;;;;;;4.10;2.20;;;29.30;50.90;;;;;;4917563;29;20462;-80
2022/06/02 12:04:10;;;;;;;2.07;1.90;;;29.80;49.10;;;;;;4863618;29;20521;-79
2022/06/02 12:07:24;;;;;;;2.90;2.10;;;30.20;47.20;;;;;;4934474;29;20506;-80
2022/06/02 12:10:25;;;;;;;1.90;1.80;;;30.40;46.70;;;;;;4849691;29;20464;-80
2022/06/02 12:13:15;;;;;;;1.80;1.70;;;30.70;46.50;;;;;;4898970;29;20468;-81
2022/06/02 12:16:01;;;;;;;1.90;1.80;;;31.00;46.10;;;;;;4916759;29;20826;-78
2022/06/02 12:18:38;;;;;;;2.03;1.70;;;30.70;46.10;;;;;;4918676;29;20466;-79
2022/06/02 12:21:42;;;;;;;2.07;1.97;;;31.40;43.90;;;;;;4916219;29;20473;-79
2022/06/02 12:24:26;;;;;;;2.37;2.27;;;31.00;43.80;;;;;;4917932;29;20972;-78
2022/06/02 12:27:09;;;;;;;2.00;1.90;;;31.10;45.80;;;;;;4921547;29;20461;-80
2022/06/02 12:29:53;;;;;;;1.93;1.83;;;30.90;44.20;;;;;;4924348;29;20544;-80
2022/06/02 12:32:35;;;;;;;2.70;2.50;;;30.40;43.70;;;;;;4928381;29;20475;-80
2022/06/02 12:35:28;;;;;;;3.13;1.97;;;29.80;44.40;;;;;;4917955;29;20502;-80
2022/06/02 12:38:22;;;;;;;2.00;1.80;;;29.70;46.10;;;;;;4930394;29;20461;-80
2022/06/02 12:41:08;;;;;;;2.50;1.93;;;29.90;45.80;;;;;;4934504;29;20486;-80
2022/06/02 12:44:21;;;;;;;2.50;2.30;;;30.20;46.70;;;;;;4926476;29;20446;-79
2022/06/02 12:47:20;;;;;;;4.77;1.90;;;30.50;45.80;;;;;;4899180;29;20472;-81
2022/06/02 12:50:28;;;;;;;2.40;1.80;;;30.80;45.90;;;;;;4861458;29;20884;-80
2022/06/02 12:53:19;;;;;;;2.57;2.47;;;30.90;45.10;;;;;;4920185;29;20446;-80
2022/06/02 12:56:10;;;;;;;2.37;2.17;;;30.90;43.30;;;;;;4919862;29;20450;-81
2022/06/02 12:58:56;;;;;;;2.30;2.20;;;30.80;44.20;;;;;;4939083;23;20500;-79
2022/06/02 13:01:41;;;;;;;2.00;1.90;;;31.40;44.70;;;;;;4936173;29;20955;-78
2022/06/02 13:04:38;;;;;;;2.30;2.10;;;32.00;43.30;;;;;;4942440;29;20485;-82
2022/06/02 13:07:36;;;;;;;2.10;2.00;;;32.30;42.10;;;;;;4942807;29;20455;-82
2022/06/02 13:10:28;;;;;;;2.73;2.40;;;32.10;40.70;;;;;;4939221;29;20459;-77
2022/06/02 13:13:21;;;;;;;3.57;2.23;;;32.30;42.90;;;;;;4936508;29;20978;-78
2022/06/02 13:16:08;;;;;;;1.83;1.73;;;32.50;43.40;;;;;;4936723;29;20463;-80
2022/06/02 13:19:16;;;;;;;2.30;1.80;;;32.30;42.60;;;;;;4939985;29;20474;-80
2022/06/02 13:22:23;;;;;;;2.60;2.40;;;32.50;42.00;;;;;;4914636;29;20459;-81
2022/06/02 13:25:27;;;;;;;1.80;1.70;;;32.70;41.00;;;;;;4929511;29;20489;-87
2022/06/02 13:28:43;;;;;;;2.70;2.57;;;31.60;40.00;;;;;;4905941;29;20480;-86
2022/06/02 13:31:59;;;;;;;2.47;2.30;;;30.90;41.10;;;;;;4944737;29;20473;-85
2022/06/02 13:35:02;;;;;;;3.30;2.10;;;30.90;42.80;;;;;;4907008;29;20453;-84
2022/06/02 13:38:08;;;;;;;3.03;2.73;;;29.80;42.20;;;;;;4947990;29;20477;-84
2022/06/02 13:40:49;;;;;;;3.37;2.67;;;29.00;44.10;;;;;;4923951;29;20519;-84
2022/06/02 13:43:49;;;;;;;5.17;2.43;;;28.40;45.80;;;;;;4947944;29;20474;-86
2022/06/02 13:46:55;;;;;;;2.47;2.33;;;27.40;46.20;;;;;;4952332;28;20463;-84
2022/06/02 13:49:58;;;;;;;3.13;2.10;;;27.60;48.40;;;;;;4925502;29;20465;-86
2022/06/02 13:53:03;;;;;;;2.50;2.30;;;27.70;49.90;;;;;;4944774;29;20437;-86
2022/06/02 13:59:09;;;;;;;3.00;1.87;;;28.00;48.80;;;;;;4947426;29;20572;-87
2022/06/02 14:01:54;;;;;;;1.80;1.70;;;27.70;48.20;;;;;;4939267;29;20529;-86
2022/06/02 14:04:42;;;;;;;2.70;2.10;;;27.40;47.50;;;;;;4946814;29;20496;-87
2022/06/02 14:07:43;;;;;;;2.50;1.80;;;27.70;48.60;;;;;;4947569;29;20982;-87
2022/06/02 14:10:33;;;;;;;2.40;2.20;;;28.70;48.60;;;;;;4947088;29;20523;-87
2022/06/02 14:13:18;;;;;;;2.10;2.00;;;29.50;45.80;;;;;;4947769;29;20439;-87
2022/06/02 14:16:00;;;;;;;3.47;2.23;;;30.30;45.90;;;;;;4947380;29;20455;-87
2022/06/02 14:18:40;;;;;;;2.50;2.30;;;29.90;43.10;;;;;;4947404;29;20489;-85
2022/06/02 14:21:17;;;;;;;2.70;2.30;;;30.70;43.70;;;;;;4946965;29;20469;-87
2022/06/02 14:23:57;;;;;;;2.07;1.97;;;31.40;43.50;;;;;;4947887;29;20448;-88
2022/06/02 14:26:34;;;;;;;1.80;1.73;;;31.50;41.40;;;;;;4948125;29;20440;-84
2022/06/02 14:29:14;;;;;;;2.60;2.50;;;31.90;41.70;;;;;;4948081;29;20468;-85
2022/06/02 14:31:53;;;;;;;2.47;2.37;;;32.30;41.20;;;;;;4950869;29;20482;-85
2022/06/02 14:34:34;;;;;;;3.23;1.90;;;32.60;42.40;;;;;;4955808;29;20453;-84
2022/06/02 14:37:09;;;;;;;4.00;3.00;;;31.90;41.70;;;;;;4943934;29;20453;-84
2022/06/02 14:39:50;;;;;;;6.00;2.33;;;31.50;42.00;;;;;;4943972;29;20472;-86
2022/06/02 14:43:07;;;;;;;2.77;2.67;;;30.70;42.90;;;;;;4945376;29;20442;-84
2022/06/02 14:45:53;;;;;;;2.47;2.27;;;29.40;43.60;;;;;;4946103;29;20503;-84
2022/06/02 14:48:27;;;;;;;4.20;3.00;;;28.30;44.90;;;;;;4946802;29;20486;-86
2022/06/02 14:50:58;;;;;;;2.30;2.10;;;27.40;46.30;;;;;;4946449;29;20461;-85
2022/06/02 14:53:42;;;;;;;6.80;2.30;;;27.20;48.00;;;;;;4948399;29;20454;-86
2022/06/02 14:56:27;;;;;;;2.83;2.43;;;26.70;48.20;;;;;;4947377;29;20465;-86
2022/06/02 14:59:12;;;;;;;2.90;2.17;;;26.60;49.70;;;;;;4949299;29;20487;-87
2022/06/02 15:01:47;;;;;;;2.77;2.50;;;26.40;49.50;;;;;;4950454;29;20436;-87
2022/06/02 15:04:36;;;;;;;2.20;2.03;;;26.30;49.70;;;;;;4949587;29;20502;-86
2022/06/02 15:07:26;;;;;;;2.33;2.23;;;26.20;50.50;;;;;;4949549;29;20460;-86
2022/06/02 15:10:08;;;;;;;3.03;1.90;;;25.90;51.00;;;;;;4948898;29;20471;-87
2022/06/02 15:12:47;;;;;;;4.20;2.50;;;25.90;51.40;;;;;;4949073;29;20451;-85
2022/06/02 15:15:37;;;;;;;2.47;2.27;;;25.80;51.10;;;;;;4948403;29;20486;-85
2022/06/02 15:18:58;;;;;;;5.13;2.40;;;25.30;52.00;;;;;;4947211;29;20462;-84
2022/06/02 15:21:34;;;;;;;2.20;2.00;;;24.90;52.30;;;;;;4946935;29;20462;-86
2022/06/02 15:24:29;;;;;;;2.10;2.00;;;24.80;54.10;;;;;;4952247;29;20438;-84
2022/06/02 15:27:31;;;;;;;2.30;2.20;;;24.90;54.60;;;;;;4946451;29;20457;-88
2022/06/02 15:30:32;;;;;;;1.97;1.87;;;24.90;54.80;;;;;;4946509;29;20462;-86
2022/06/02 15:33:38;;;;;;;4.10;2.50;;;24.80;54.60;;;;;;4910732;29;20465;-83
2022/06/02 15:36:41;;;;;;;4.53;2.73;;;24.60;55.90;;;;;;4918141;29;20457;-86
2022/06/02 15:39:56;;;;;;;2.47;2.27;;;23.90;56.00;;;;;;4942390;29;20484;-87
2022/06/02 15:42:44;;;;;;;4.00;3.07;;;23.60;57.50;;;;;;4936138;29;20445;-86
2022/06/02 15:45:56;;;;;;;2.50;2.00;;;23.40;57.40;;;;;;4946449;29;20485;-86
2022/06/02 15:49:05;;;;;;;2.40;2.20;;;23.30;57.70;;;;;;4945749;29;20489;-86
2022/06/02 15:51:50;;;;;;;2.50;2.30;;;23.40;57.60;;;;;;4944483;29;20796;-85
2022/06/02 15:54:47;;;;;;;2.70;2.50;;;23.50;57.80;;;;;;4946677;29;20451;-87
2022/06/02 15:57:43;;;;;;;2.33;2.17;;;23.70;57.80;;;;;;4943020;29;20450;-84
2022/06/02 16:00:31;;;;;;;2.37;2.17;;;23.80;57.10;;;;;;4943389;29;20494;-85
2022/06/02 16:03:36;;;;;;;4.83;2.90;;;23.80;56.80;;;;;;4944701;29;20450;-85
2022/06/02 16:06:39;;;;;;;2.50;2.40;;;23.80;57.30;;;;;;4945960;29;20487;-84
2022/06/02 16:13:05;;;;;;;3.10;3.00;;;24.50;56.80;;;;;;4908687;29;20437;-82
2022/06/02 16:16:01;;;;;;;2.77;2.50;;;24.50;55.80;;;;;;4909512;29;20462;-83
2022/06/02 16:19:15;;;;;;;3.17;2.97;;;24.60;56.30;;;;;;4946079;29;20481;-83
2022/06/02 16:22:08;;;;;;;2.80;2.60;;;24.60;56.10;;;;;;4934967;29;20498;-83
2022/06/02 16:25:24;;;;;;;3.70;2.90;;;25.10;56.20;;;;;;4945610;29;20490;-84
2022/06/02 16:28:30;;;;;;;2.80;2.60;;;24.90;55.30;;;;;;4904629;29;20961;-84
2022/06/02 16:31:09;;;;;;;2.33;2.23;;;25.30;55.40;;;;;;4945429;29;20465;-83
2022/06/02 16:33:56;;;;;;;3.63;3.30;;;25.80;55.70;;;;;;4946932;29;20461;-82
2022/06/02 16:36:50;;;;;;;2.60;2.43;;;26.10;54.20;;;;;;4946137;29;20451;-83
2022/06/02 16:39:29;;;;;;;4.40;2.80;;;26.90;53.40;;;;;;4946185;29;20469;-83
2022/06/02 16:42:35;;;;;;;2.83;2.63;;;28.70;52.00;;;;;;4946048;29;20466;-81
2022/06/02 16:45:18;;;;;;;4.93;2.70;;;30.40;48.70;;;;;;4930022;29;20504;-83
2022/06/02 16:48:19;;;;;;;3.03;2.40;;;31.40;46.10;;;;;;4943342;29;20564;-81
2022/06/02 16:51:03;;;;;;;2.70;2.50;;;30.70;45.60;;;;;;4941077;29;20458;-81
2022/06/02 16:53:59;;;;;;;3.17;2.90;;;30.80;46.10;;;;;;4942218;29;20800;-81